Fairplay, CO (80440)

2:37 AM MST on February 13, 2016 (GMT -0700)
Foxtail Pines | | Change Station
CLOSE
Current Station
Personal Weather Station
Location: Fairplay, CO
Elevation: 10240 ft
Nearby Weather Stations

Elev 10240 ft 39.20 °N, 106.04 °W | Updated 12 seconds ago

Clear
Clear
30.4 °F
Feels Like 30 °F
N
0.0
Wind Variable Wind from NW
Gusts 0.0 mph

Today
High -- | Low -- °F
--% Chance of Precip.
Yesterday
High -- | Low -- °F
Precip. -- in
Pressure 30.07 in
Visibility 10.0 miles
Clouds Clear
Windchill 30 °F
Dew Point 10 °F
Humidity 41%
Rainfall 0.00 in
Snow Depth Not available.
6:58 AM 5:38 PM
Waxing Crescent, 29% visible
METAR KLXV 130853Z AUTO 04006KT 10SM CLR M01/M10 A3035 RMK AO2 SLP183 T10111100 58011
Pressure 30.07 in
Visibility 10.0 miles
Clouds Clear
Windchill 30 °F
Dew Point 10 °F
Humidity 41%
Rainfall 0.00 in
Snow Depth Not available.
6:58 AM 5:38 PM
Waxing Crescent, 29% visible
METAR KLXV 130853Z AUTO 04006KT 10SM CLR M01/M10 A3035 RMK AO2 SLP183 T10111100 58011

10-Day Weather Forecast

Almanac

Astronomy

Feb. 13, 2016 Rise Set
Actual Time
Civil Twilight
Nautical Twilight
Astronomical Twilight
Moon
Length of Visible Light
Length of Day
Tomorrow will be .
, % of the Moon is Illuminated

Today's Extremes

State Highs State Lows

Community

WunderPhotos

Upload Photos

1,892,536 photos uploaded!

WunderBlog® & News

Nearby

Air Quality

  Air Quality AQ Index Pollutant
Not available.

Snow Depth

Station Depth Elevation

Earthquake Activity

City Distance Mag. Time & Date
Minimum magnitude displayed is 2.5.

Coastal Water Temperatures

Place Temperature

Stations

Nearby Weather Stations

Station Location Temp. Windchill Dew Point Humidity Wind Precip. Elev Updated Type
                   

Watches & Warnings

There are currently no watches in effect.